Details From FYLZ - Luderitz
To FYWB - Walvis Bay
Flight Number -
Tags Generated
Created
Modified
Stats Distance 225 nm / 417 km
Max Altitude 0 ft / 0 m
Waypoints 3
Social Downloads 0
Likes 0
Share VATSIM

Download

Looking for another format? Having issues loading an existing format? Contact us
Advertisement - Login to hide

Notes

Generated

Route

FYLZ WBV FYWB

ID Type Via Altitude Latitude Longitude Leg Dist Tot Dist Heading (true) Name
O FYLZ APT - 0 ft / 0 m -26.68727˚ 15.24203˚ - 0 nm - -
WBV VOR - 0 ft / 0 m -22.98211˚ 14.64456˚ 224 nm 224 nm 352° / 352° WALVIS BAY VOR-DME
O FYWB APT - 0 ft / 0 m -22.98293˚ 14.63547˚ 0 nm 225 nm 264° / 264° -

Altitude Profile

Advertisement - Login to hide

Weather


0- 5 10 15 20 25 30 35+ Temperature / ° C

Clouds and Precipitation
Forecast for 2017-12-14 12:00 UTC. Updated 2 hours ago

Ground ~20,000 ft ~40,000 ft Winds

FYLZ

Details ICAO FYLZ (LUD)
Name LUDERITZ
Region Namibia
Timezone Africa/Windhoek (UTC+2.0)
Stats Elevation 457 ft / 139 m (AMSL)
Location -26.685936° 15.246039°
Runways 2
Magnetic Variation 16.895° W

METAR

FYLZ 141000Z AUTO 21028KT //// // ////// 26/13 Q1013

Decode

TAF

Not found

Departure Runways

ID Width Length Bearing (true) Bearing (mag) Surface Threshold Offset Overrun Length
04 98 ft / 30 m 6,038 ft / 1,840 m 16.86° 33.76° Asphalt 0 ft / 0 m 0 ft / 0 m
12 98 ft / 30 m 3,940 ft / 1,201 m 98.99° 115.89° Gravel 0 ft / 0 m 0 ft / 0 m
22 98 ft / 30 m 6,038 ft / 1,840 m 196.85° 213.75° Asphalt 0 ft / 0 m 0 ft / 0 m
30 98 ft / 30 m 3,940 ft / 1,201 m 278.98° 295.88° Gravel 0 ft / 0 m 0 ft / 0 m

FYWB

Details ICAO FYWB (WVB)
Name WALVIS BAY
Region Namibia
Timezone Africa/Windhoek (UTC+2.0)
Stats Elevation 299 ft / 91 m (AMSL)
Location -22.979889° 14.645331°
Runways 1
Magnetic Variation 12.919° W

METAR

FYWB 141000Z 31007KT CAVOK 19/11 Q1016

Decode

TAF

Not found

Destination Runways

ID Width Length Bearing (true) Bearing (mag) Surface Threshold Offset Overrun Length
09 98 ft / 30 m 6,984 ft / 2,129 m 71.49° 84.41° Asphalt 0 ft / 0 m 70 ft / 21 m
27 98 ft / 30 m 6,984 ft / 2,129 m 251.48° 264.40° Asphalt 0 ft / 0 m 70 ft / 21 m